Observation of Berlin-Dahlem in FM12 format


Date: 28.10.2021

Hour: 14 UTC
NIL The FM12 has been submitted too late!
Hour: 13 UTC
NIL The FM12 has been submitted too late!
Hour: 12 UTC

SMDL DWBD 281200
AAXX 28121
10381 02980 11703 10153 20079 30111 40207 57014 60001 80002
    333 31/// 55310 60007 81080
    555 00166 10000 22030 2360 2401 2503 91005 91106 91204
  BOT 10142 20118 30098 40104 50118
           80000 100000
   666 10155 20141=
Hour: 11 UTC

SNDL DWBD 281100
AAXX 28111
10381 42975 21804 10144 20082 30119 40215 57009 80002
    333 55310 82080
    555 00157 10000 22040 2360 2405 2503 91007 91107 91205
  BOT 10130 20106 30091 40104 50118
   666 10144 20125=
Hour: 10 UTC

SNDL DWBD 281000
AAXX 28101
10381 42975 21603 10128 20082 30122 40219 57008 80002
    333 55310 82080
    555 00128 10000 22028 2360 2405 91005 91105 91203
  BOT 10107 20089 30086 40105 50118
   666 10128 20099=
Hour: 9 UTC

SIDL DWBD 280900
AAXX 28091
10381 22970 31603 10099 20076 30125 40223 58004 80002
    333 20059 3/003 55310 60007 83080
    555 00081 10000 22025 2360 2407 2503 91005 91105 91203
  BOT 10074 20079 30086 40105 50118
   666 10099 20086=
Hour: 8 UTC

SNDL DWBD 280800
AAXX 28081
10381 42265 31703 10086 20080 30128 40226 58002 81602
    333 55310 81705 83080 96210
    555 00076 10000 22027 2360 2405 2503 91004 91105 91204
  BOT 10067 20075 30086 40106 50118
   666 10086 20067=
Hour: 7 UTC

SNDL DWBD 280700
AAXX 28071
10381 41957 41603 10067 20067 30130 40229 55000 71000 80002
    333 55303 84080
    555 00044 10000 22031 2321 2405 2503 91004 91105 91203
  BOT 10061 20075 30088 40106 50118
   666 10068 20059=
Hour: 6 UTC

SMDL DWBD 280600
AAXX 28061
10381 01957 41703 10060 20060 30129 40228 57002 60002 71011 80002
    333 10134 20060 31003 55012 55300 60007 70000 84075
    555 00031 10000 20121 22030 2300 2404 2503 91004 91104 91203
  BOT 10061 20077 30090 40106 50118
           80000 100000 20074 3085 4054 600//00 70139 80095 900760
   666 10066 20060=
Hour: 5 UTC

SNDL DWBD 280500
AAXX 28051
10381 42970 41703 10066 20066 30130 40229 56002 80004
    333 55300 84081
    555 00034 10000 22029 2300 2405 2504 91005 91105 91204
  BOT 10064 20081 30093 40106 50118
   666 10074 20064=
Hour: 4 UTC

SNDL DWBD 280400
AAXX 28041
10381 42970 21804 10074 20074 30130 40229 57003 80001
    333 55300 82081
    555 00043 10000 22036 2300 2405 91005 91105 91204
  BOT 10069 20084 30096 40107 50118
   666 10076 20071=
Hour: 3 UTC

SIDL DWBD 280300
AAXX 28031
10381 22975 41803 10074 20071 30131 40230 58001 80001
    333 55300 60007 84081
    555 00041 10000 22034 2300 2407 91005 91105 91203
  BOT 10073 20089 30099 40106 50118
   666 10083 20071=
Hour: 2 UTC

SNDL DWBD 280200
AAXX 28021
10381 42582 51903 10083 20077 30132 40230 50001 81501
    333 55300 81632 85081
    555 00050 10000 22033 2300 2405 91004 91105 91204
  BOT 10079 20094 30102 40106 50118
   666 10095 20083=
Hour: 1 UTC

SNDL DWBD 280100
AAXX 28011
10381 42584 51903 10095 20083 30133 40231 55003 81504
    333 55300 81632 85081
    555 00060 10000 22031 2300 2405 91004 91106 91204
  BOT 10087 20099 30104 40106 50118
   666 10109 20095=
Hour: 0 UTC

SMDL DWBD 280000
AAXX 28001
10381 02585 22004 10108 20087 30132 40229 58004 60001 81504
    333 31/// 55300 60007 81629
    555 00085 10000 22036 2300 2401 91005 91106 91204
  BOT 10095 20104 30106 40105 50118
           80000 100000
   666 10123 20108=

Yesterday Synops


Hour: 23 UTC

SNDL DWBD 272300
AAXX 27231
10381 42585 62104 10123 20089 30133 40230 58003 86500
    333 55300 86627
    555 00110 10000 22036 2300 2405 91006 91106 91204
  BOT 10107 20108 30107 40105 50118
   666 10128 20123=
Hour: 22 UTC

SNDL DWBD 272200
AAXX 27221
10381 42585 72003 10128 20092 30136 40233 51001 875//
    333 55300 87627
    555 00118 10000 22033 2300 2405 91005 91106 91204
  BOT 10108 20109 30107 40105 50118
   666 10131 20128=
Hour: 21 UTC

SIDL DWBD 272100 CCA
AAXX 27211
10381 22585 72104 10130 20094 30136 40233 51002 875//
    333 55300 60007 87628
    555 00120 10000 22035 2300 2407 91006 91106 91204
  BOT 10109 20109 30107 40104 50118
   666 10132 20130=
Hour: 20 UTC

SNDL DWBD 272000
AAXX 27201
10381 42580 82203 10132 20096 30136 40233 52003 875//
    333 55300 87627
    555 00123 10000 22031 2300 2405 91005 91107 91204
  BOT 10110 20109 30107 40104 50118
   666 10133 20131=
Hour: 19 UTC

SNDL DWBD 271900
AAXX 27191
10381 42580 82104 10133 20099 30135 40231 52003 875//
    333 55300 87629
    555 00125 10000 22036 2300 2405 91006 91106 91204
  BOT 10110 20110 30107 40103 50118
   666 10134 20132=
Hour: 18 UTC

SMDL DWBD 271800
AAXX 27181
10381 02580 82103 10133 20101 30134 40230 52004 60002 875//
    333 10139 20102 31010 55300 60007 87629
    555 00124 10000 22034 2300 2402 91006 91106 91204
  BOT 10111 20110 30107 40103 50118
           80000 100000
   666 10134 20133=
Hour: 17 UTC

SNDL DWBD 271700
AAXX 27171
10381 42580 82103 10133 20101 30133 40229 53002 875//
    333 55300 87627
    555 00125 10000 22030 2300 2405 91005 91105 91204
  BOT 10112 20111 30107 40102 50118
   666 10135 20133=
Hour: 16 UTC

SNDL DWBD 271600
AAXX 27161
10381 42580 82103 10135 20099 30132 40228 55000 875//
    333 55300 87627
    555 00126 10000 22034 2300 2405 91005 91107 91204
  BOT 10114 20112 30107 40102 50118
   666 10136 20135=
Hour: 15 UTC

SIDL DWBD 271500
AAXX 27151
10381 22581 82104 10136 20098 30130 40226 57005 875//
    333 55300 60007 87624
    555 00131 10000 22038 2300 2407 91006 91107 91204
  BOT 10118 20113 30106 40101 50118
   666 10139 20136=
Hour: 14 UTC

SNDL DWBD 271400
AAXX 27141
10381 42580 82104 10138 20096 30131 40227 57007 875//
    333 55300 87623
    555 00134 10000 22040 2300 2405 91007 91107 91204
  BOT 10120 20114 30105 40101 50118
   666 10139 20137=
Hour: 13 UTC

SNDL DWBD 271300
AAXX 27131
10381 42581 82104 10137 20095 30132 40228 58003 875//
    333 55300 87623
    555 00137 10000 22035 2300 2405 91006 91106 91204
  BOT 10123 20113 30103 40100 50118
   666 10137 20136=
Hour: 12 UTC

SMDL DWBD 271200
AAXX 27121
10381 02582 82204 10136 20092 30135 40231 50004 60001 875//
    333 31/// 55300 60007 87626
    555 00137 10000 22035 2300 2401 91006 91107 91204
  BOT 10121 20111 30100 40100 50118
           80000 100000
   666 10136 20134=
Hour: 11 UTC

SNDL DWBD 271100
AAXX 27111
10381 42581 82304 10136 20090 30138 40234 52011 875//
    333 55300 87621
    555 00140 10000 22039 2300 2405 91007 91109 91205
  BOT 10120 20107 30097 40100 50118
   666 10138 20133=
Hour: 10 UTC

SNDL DWBD 271000
AAXX 27101
10381 42580 72404 10137 20089 30135 40231 52009 875//
    333 55305 87628
    555 00136 10000 22041 2327 2405 91008 91108 91204
  BOT 10116 20102 30094 40100 50118
   666 10139 20128=
Hour: 9 UTC

SIDL DWBD 270900
AAXX 27091
10381 22670 72204 10129 20085 30131 40228 52010 82534
    333 20091 3/006 55308 60007 82641 87080
    555 00122 10000 22037 2346 2407 91007 91108 91205
  BOT 10103 20095 30092 40100 50118
   666 10130 20112=
Hour: 8 UTC

SNDL DWBD 270800 CCA
AAXX 27081
10381 42681 72105 10112 20080 30127 40224 53006 86531
    333 55300 86645 85076
    555 00111 10000 22047 2300 2405 91007 91108 91205
  BOT 10096 20092 30091 40100 50119
   666 10112 20105=
Hour: 7 UTC

SNDL DWBD 270700
AAXX 27071
10381 42680 82205 10105 20077 30126 40223 52008 875//
    333 55300 87636
    555 00100 10000 22048 2300 2405 91008 91108 91205
  BOT 10089 20089 30090 40100 50119
   666 10105 20102=
Hour: 6 UTC

SMDL DWBD 270600
AAXX 27061
10381 02675 82104 10102 20079 30121 40218 51003 69902 875//
    333 10102 20091 31006 55005 55300 60007 70002 87640
    555 00096 10000 20091 22042 2300 2464 91007 91107 91204
  BOT 10087 20088 30089 40100 50119
           80000 100000 20032 3085 4046 601//00 70141 80034 900100
   666 10102 20100=
Hour: 5 UTC

SNDL DWBD 270500
AAXX 27051
10381 42584 82104 10100 20077 30121 40219 53003 875//
    333 55300 85620 86638
    555 00095 10000 22040 2300 2405 91007 91108 91205
  BOT 10086 20087 30089 40100 50119
   666 10100 20098=
Hour: 4 UTC

SNDL DWBD 270400
AAXX 27041
10381 42685 82104 10100 20079 30118 40216 56002 875//
    333 55300 82637 85657
    555 00092 10000 22042 2300 2405 91006 91107 91204
  BOT 10085 20087 30088 40100 50119
   666 10100 20098=
Hour: 3 UTC

SIDL DWBD 270300 CCA
AAXX 27031
10381 22685 82004 10098 20080 30118 40216 56001 875//
    333 55300 60007 87633
    555 00093 10000 22040 2300 2407 91007 91107 91204
  BOT 10084 20086 30088 40100 50119
   666 10098 20095=
Hour: 2 UTC

SNDL DWBD 270200
AAXX 27021
10381 42785 72004 10095 20079 30118 40216 50001 875//
    333 55300 87650
    555 00084 10000 22036 2300 2405 91005 91106 91204
  BOT 10080 20085 30088 40099 50119
   666 10098 20095=
Hour: 1 UTC

SNDL DWBD 270100
AAXX 27011
10381 42885 72104 10097 20080 30120 40218 53002 8357/
    333 55300 83657 86368
    555 00079 10000 22037 2300 2405 91006 91106 91204
  BOT 10080 20084 30088 40099 50119
   666 10098 20095=
Hour: 0 UTC

SMDL DWBD 270000
AAXX 27001
10381 01985 72104 10096 20080 30119 40217 55000 69901 70282 8707/
    333 31/// 55300 60007 81359 86363
    555 00082 10000 22040 2300 2461 91006 91106 91204
  BOT 10078 20084 30089 40099 50119
           80000 199996
   666 10096 20093=

The day before yesterday Synops


Hour: 23 UTC

SNDL DWBD 262300
AAXX 26231
10381 42784 72104 10095 20077 30117 40215 50000 8157/
    333 55300 81650 86360
    555 00075 10000 22035 2300 2405 91005 91106 91204
  BOT 10079 20085 30090 40099 50119
   666 10100 20095=
Hour: 22 UTC

SNDL DWBD 262200
AAXX 26221
10381 42782 82104 10100 20077 30118 40216 50003 875//
    333 55300 87650
    555 00086 10000 22039 2300 2405 91006 91106 91204
  BOT 10083 20086 30090 40099 50119
   666 10100 20095=
Hour: 21 UTC

SIDL DWBD 262100
AAXX 26211
10381 21682 62204 10097 20078 30119 40217 53004 72522 84830
    333 55300 69907 81833 84650
    555 00072 1999/ 22037 2300 2467 91005 91106 91204
  BOT 10081 20086 30091 40098 50119
   666 10098 20092=
Hour: 20 UTC

SNDL DWBD 262000
AAXX 26201
10381 42881 62204 10093 20082 30117 40215 52006 82530
    333 55300 82657 85365
    555 00068 10000 22041 2300 2405 91006 91106 91204
  BOT 10078 20088 30093 40098 50120
   666 10097 20091=
Hour: 19 UTC

SNDL DWBD 261900
AAXX 26191
10381 42982 52203 10097 20088 30115 40213 51010 85030
    333 55300 85366
    555 00073 10000 22032 2300 2405 91004 91105 91204
  BOT 10085 20092 30094 40097 50120
   666 10102 20094=
Hour: 18 UTC

SMDL DWBD 261800 CCD
AAXX 26181
10381 01981 72303 10094 20089 30115 40213 52014 69922 70182 8707/
    333 10141 20067 31006 55300 60007 85461 87368
    555 00075 10000 22032 2300 2462 91004 91105 91203
  BOT 10088 20094 30095 40096 50120
           80000 100026
   666 10103 20094=
Hour: 17 UTC

SNDL DWBD 261700
AAXX 26171
10381 42581 72402 10103 20094 30111 40208 52013 8482/
    333 55300 81831 83656 87463
    555 00077 10000 22024 2300 2405 91004 91104 91203
  BOT 10094 20098 30097 40096 50120
   666 10116 20103=
Hour: 16 UTC

SNDL DWBD 261600 CCA
AAXX 26161
10381 42580 72402 10116 20093 30105 40202 53007 8482/
    333 55301 81831 83656 87464
    555 00089 10000 22024 2301 2405 91003 91105 91203
  BOT 10101 20102 30097 40095 50120
   666 10127 20116=
Hour: 15 UTC

SIDL DWBD 261500 CCA
AAXX 26151
10381 21675 72303 10126 20096 30101 40197 53003 71582 8683/
    333 55304 69927 82833 86656
    555 00112 10000 22027 2321 2467 91004 91106 91203
  BOT 10109 20105 30096 40094 50120
   666 10130 20126=
Hour: 14 UTC

SNDL DWBD 261400
AAXX 26141
10381 41575 72403 10128 20094 30098 40194 56001 72522 878//
    333 55301 83828 86657
    555 00116 1002/ 22029 2306 2465 91005 91108 91204
  BOT 10116 20106 30094 40094 50120
   666 10141 20128=
Hour: 13 UTC

SNDL DWBD 261300
AAXX 26131
10381 42575 72503 10138 20085 30098 40194 56002 878//
    333 55301 82820 87640
    555 00146 10000 22031 2303 2405 91006 91107 91205
  BOT 10118 20104 30090 40093 50120
   666 10138 20133=
Hour: 12 UTC

SMDL DWBD 261200
AAXX 26121
10381 02575 72404 10134 20084 30098 40194 50001 60001 878//
    333 31/// 55301 60007 82820 84640 87657
    555 00138 10000 22037 2301 2401 91007 91109 91205
  BOT 10119 20101 30085 40093 50120
           80000 100000
   666 10134 20130=
Hour: 11 UTC

SNDL DWBD 261100
AAXX 26111
10381 42681 72404 10130 20084 30099 40195 50003 875//
    333 55300 85640 87657
    555 00138 10000 22042 2300 2405 91008 91108 91204
  BOT 10110 20093 30080 40093 50121
   666 10130 20117=
Hour: 10 UTC

SNDL DWBD 261000
AAXX 26101
10381 42674 72303 10117 20087 30100 40197 52007 875//
    333 55300 87633
    555 00123 10000 22032 2300 2405 91005 91105 91204
  BOT 10098 20083 30076 40093 50121
   666 10117 20102=
Hour: 9 UTC

SIDL DWBD 260900
AAXX 26091
10381 22574 82202 10102 20079 30097 40194 52011 875//
    333 20032 3/000 55300 60007 87625
    555 00105 10000 22020 2300 2407 91004 91106 91204
  BOT 10087 20076 30072 40093 50121
   666 10102 20087=
Hour: 8 UTC

SNDL DWBD 260800
AAXX 26081
10381 42570 82203 10087 20070 30096 40194 52012 8452/
    333 55300 84630 88463
    555 00086 10000 22031 2300 2405 91005 91105 91203
  BOT 10074 20068 30069 40094 50121
   666 10087 20075=
Hour: 7 UTC

SNDL DWBD 260700
AAXX 26071
10381 42474 82303 10075 20063 30093 40191 52010 875//
    333 55300 87615
    555 00070 10000 22032 2300 2405 91005 91105 91203
  BOT 10064 20064 30068 40094 50121
   666 10076 20067=
Hour: 6 UTC

SMDL DWBD 260600
AAXX 26061
10381 02573 72203 10067 20056 30086 40184 52004 60002 875//
    333 10067 20032 31000 55058 55300 60007 70000 84631 87657
    555 00061 10000 20053 22027 2300 2404 91005 91105 91204
  BOT 10058 20061 30067 40094 50121
           80000 100000 20347 3076 4053 600//00 70109 80005 910210
   666 10067 20059=
Hour: 5 UTC

SNDL DWBD 260500
AAXX 26051
10381 42581 82103 10059 20052 30084 40183 55000 875//
    333 55300 82624 86640
    555 00055 10000 22030 2300 2405 91004 91105 91204
  BOT 10054 20058 30065 40095 50121
   666 10059 20051=
Hour: 4 UTC

SNDL DWBD 260400
AAXX 26041
10381 42682 72004 10051 20051 30083 40182 55001 865//
    333 55300 82640 85658
    555 00048 10000 22038 2300 2405 91005 91105 91204
  BOT 10047 20055 30065 40095 50122
   666 10051 20041=
Hour: 3 UTC

SIDL DWBD 260300
AAXX 26031
10381 22782 61904 10043 20043 30082 40181 57003 81502
    333 55300 60007 81656 85075
    555 00022 10000 22035 2300 2407 91004 91105 91204
  BOT 10043 20055 30066 40096 50122
   666 10052 20043=
Hour: 2 UTC

SNDL DWBD 260200
AAXX 26021
10381 42782 71903 10051 20051 30084 40183 56004 865//
    333 55300 86650
    555 00044 10000 22032 2300 2405 91004 91105 91204
  BOT 10048 20055 30065 40096 50122
   666 10051 20045=
Hour: 1 UTC

SNDL DWBD 260100
AAXX 26011
10381 42782 71904 10045 20045 30084 40183 57005 875//
    333 55300 87650
    555 00042 10000 22038 2300 2405 91004 91105 91204
  BOT 10043 20052 30066 40096 50122
   666 10045 20034=
Hour: 0 UTC

SMDL DWBD 260000
AAXX 26001
10381 02982 52104 10037 20037 30085 40185 58002 60001 82032
    333 31/// 55300 60007 82368 84080
    555 00013 10000 22037 2300 2401 91004 91105 91204
  BOT 10037 20052 30067 40097 50122
           80000 100000
   666 10037 20032=